Time;durP1;ratioP1;P1;durP2;ratioP2;P2;SDS_P1;SDS_P2;PMS_P1;PMS_P2;Temp;Humidity;BMP_temperature;BMP_pressure;BME280_temperature;BME280_humidity;BME280_pressure;Samples;Min_cycle;Max_cycle;Signal;HPM_P1;HPM_P2
2023/08/30 00:01:22;;;;;;;0.50;0.50;;;22.30;62.50;;;;;;6195940;28;20358;-73
2023/08/30 00:04:23;;;;;;;0.40;0.40;;;22.30;62.50;;;;;;6196108;28;20041;-73
2023/08/30 00:07:24;;;;;;;0.40;0.40;;;22.30;62.50;;;;;;6195617;28;20087;-72
2023/08/30 00:10:24;;;;;;;0.45;0.40;;;22.30;62.60;;;;;;6196048;28;20088;-72
2023/08/30 00:13:26;;;;;;;1.08;0.40;;;22.30;62.60;;;;;;6195377;28;20501;-72
2023/08/30 00:16:27;;;;;;;0.68;0.50;;;22.30;62.60;;;;;;6195451;28;20031;-73
2023/08/30 00:19:27;;;;;;;0.50;0.50;;;22.30;62.60;;;;;;6195501;28;20457;-73
2023/08/30 00:22:28;;;;;;;0.60;0.40;;;22.30;62.60;;;;;;6195233;28;20402;-73
2023/08/30 00:25:28;;;;;;;0.60;0.40;;;22.30;62.60;;;;;;6195333;28;20032;-73
2023/08/30 00:28:29;;;;;;;0.30;0.30;;;22.30;62.60;;;;;;6194975;28;20254;-73
2023/08/30 00:31:30;;;;;;;0.50;0.40;;;22.30;62.60;;;;;;6195969;28;20072;-73
2023/08/30 00:34:30;;;;;;;0.93;0.60;;;22.30;62.70;;;;;;6195424;28;20023;-73
2023/08/30 00:37:31;;;;;;;0.40;0.40;;;22.30;62.70;;;;;;6195080;28;20037;-72
2023/08/30 00:40:39;;;;;;;0.75;0.50;;;22.30;62.60;;;;;;6195332;28;20036;-72
2023/08/30 00:43:40;;;;;;;0.68;0.40;;;22.30;62.70;;;;;;6194730;28;20030;-73
2023/08/30 00:46:41;;;;;;;0.45;0.32;;;22.30;62.70;;;;;;6195139;28;20092;-72
2023/08/30 00:49:41;;;;;;;0.28;0.28;;;22.30;62.70;;;;;;6194459;28;20035;-72
2023/08/30 00:52:42;;;;;;;0.75;0.50;;;22.30;62.70;;;;;;6194758;28;20511;-72
2023/08/30 00:55:43;;;;;;;0.50;0.50;;;22.30;62.70;;;;;;6194670;28;20383;-74
2023/08/30 00:58:44;;;;;;;0.55;0.40;;;22.30;62.70;;;;;;6192751;28;20015;-72
2023/08/30 01:01:45;;;;;;;0.38;0.35;;;22.30;62.80;;;;;;6194624;28;20022;-73
2023/08/30 01:04:47;;;;;;;0.50;0.45;;;22.30;62.70;;;;;;6194574;28;20465;-73
2023/08/30 01:07:48;;;;;;;0.50;0.50;;;22.30;62.70;;;;;;6194602;28;20018;-73
2023/08/30 01:11:14;;;;;;;0.85;0.50;;;22.30;62.80;;;;;;6193978;28;20112;-73
2023/08/30 01:14:22;;;;;;;0.40;0.40;;;22.30;62.70;;;;;;6190710;28;20394;-72
2023/08/30 01:17:24;;;;;;;0.38;0.38;;;22.30;62.70;;;;;;6194366;28;20088;-73
2023/08/30 01:20:26;;;;;;;0.77;0.65;;;22.30;62.70;;;;;;6193558;28;20041;-72
2023/08/30 01:23:49;;;;;;;0.30;0.30;;;22.30;62.70;;;;;;6194249;28;20023;-72
2023/08/30 01:27:09;;;;;;;0.50;0.30;;;22.30;62.80;;;;;;6194112;28;20018;-72
2023/08/30 01:30:11;;;;;;;0.35;0.35;;;22.30;62.80;;;;;;6193773;28;20031;-71
2023/08/30 01:33:15;;;;;;;0.57;0.40;;;22.30;62.80;;;;;;6194084;28;20457;-73
2023/08/30 01:36:16;;;;;;;0.40;0.40;;;22.30;63.60;;;;;;6194016;28;20030;-73
2023/08/30 01:39:17;;;;;;;0.30;0.30;;;22.30;62.80;;;;;;6193616;28;20038;-72
2023/08/30 01:42:21;;;;;;;0.82;0.55;;;22.30;62.80;;;;;;6192529;28;20057;-72
2023/08/30 01:45:23;;;;;;;0.57;0.50;;;22.30;62.80;;;;;;6194080;28;20493;-73
2023/08/30 01:48:26;;;;;;;0.50;0.40;;;22.20;62.70;;;;;;6193997;28;20073;-72
2023/08/30 01:51:27;;;;;;;0.50;0.40;;;22.30;62.80;;;;;;6193188;28;20109;-72
2023/08/30 01:54:29;;;;;;;0.57;0.43;;;22.30;62.80;;;;;;6193751;28;20026;-72
2023/08/30 01:57:30;;;;;;;0.32;0.30;;;22.30;62.80;;;;;;6193426;28;20031;-72
2023/08/30 02:00:30;;;;;;;0.30;0.30;;;22.30;62.80;;;;;;6193190;28;20085;-72
2023/08/30 02:03:31;;;;;;;0.30;0.30;;;22.30;62.90;;;;;;6193592;28;20105;-72
2023/08/30 02:06:45;;;;;;;0.47;0.32;;;22.30;62.90;;;;;;6193355;28;20119;-72
2023/08/30 02:09:55;;;;;;;0.38;0.38;;;22.30;62.80;;;;;;6193329;28;20060;-73
2023/08/30 02:12:57;;;;;;;0.38;0.30;;;22.30;62.90;;;;;;6193215;28;20109;-72
2023/08/30 02:16:00;;;;;;;0.77;0.35;;;22.30;62.90;;;;;;6193613;28;20462;-72
2023/08/30 02:19:01;;;;;;;0.52;0.40;;;22.30;62.90;;;;;;6193095;28;20025;-72
2023/08/30 02:22:03;;;;;;;0.47;0.40;;;22.30;62.90;;;;;;6193024;28;20105;-72
2023/08/30 02:25:04;;;;;;;0.95;0.30;;;22.30;62.90;;;;;;6193227;28;20037;-72
2023/08/30 02:28:05;;;;;;;0.40;0.40;;;22.30;62.90;;;;;;6193690;28;20038;-72
2023/08/30 02:31:05;;;;;;;0.50;0.40;;;22.30;62.90;;;;;;6196718;28;20034;-73
2023/08/30 02:34:06;;;;;;;0.40;0.30;;;22.30;62.90;;;;;;6198164;28;20121;-73
2023/08/30 02:37:07;;;;;;;0.30;0.30;;;22.30;62.90;;;;;;6197920;28;20034;-72
2023/08/30 02:40:08;;;;;;;0.60;0.35;;;22.30;63.00;;;;;;6197284;28;20030;-72
2023/08/30 02:43:08;;;;;;;0.40;0.40;;;22.30;62.90;;;;;;6197316;28;20050;-72
2023/08/30 02:46:09;;;;;;;0.47;0.40;;;22.30;62.90;;;;;;6197997;28;20046;-73
2023/08/30 02:49:11;;;;;;;0.60;0.38;;;22.30;63.00;;;;;;6197365;28;20671;-73
2023/08/30 02:52:11;;;;;;;0.50;0.40;;;22.30;63.00;;;;;;6197247;28;20703;-72
2023/08/30 02:55:12;;;;;;;0.38;0.38;;;22.30;63.00;;;;;;6197248;28;20037;-73
2023/08/30 02:58:12;;;;;;;0.47;0.40;;;22.30;62.90;;;;;;6197446;28;20141;-73
2023/08/30 03:01:13;;;;;;;1.20;0.47;;;22.30;63.00;;;;;;6197301;28;20401;-73
2023/08/30 03:04:14;;;;;;;0.30;0.30;;;22.20;63.30;;;;;;6197208;28;20029;-73
2023/08/30 03:07:14;;;;;;;0.70;0.45;;;22.30;63.00;;;;;;6197122;28;20057;-72
2023/08/30 03:10:15;;;;;;;0.50;0.50;;;22.30;63.00;;;;;;6197207;28;20058;-73
2023/08/30 03:13:16;;;;;;;0.35;0.30;;;22.30;63.00;;;;;;6196952;28;20654;-73
2023/08/30 03:16:17;;;;;;;0.55;0.32;;;22.30;63.00;;;;;;6194569;28;20054;-75
2023/08/30 03:19:18;;;;;;;0.47;0.47;;;22.20;62.90;;;;;;6196925;28;20019;-72
2023/08/30 03:22:18;;;;;;;0.20;0.20;;;22.30;63.00;;;;;;6197032;28;20030;-73
2023/08/30 03:25:19;;;;;;;0.30;0.30;;;22.30;63.00;;;;;;6197004;28;20042;-73
2023/08/30 03:28:20;;;;;;;0.52;0.30;;;22.30;63.00;;;;;;6197099;28;20026;-73
2023/08/30 03:31:21;;;;;;;0.32;0.32;;;22.30;63.00;;;;;;6196366;28;20038;-73
2023/08/30 03:34:22;;;;;;;0.50;0.50;;;22.30;63.00;;;;;;6196589;28;20385;-73
2023/08/30 03:37:22;;;;;;;0.40;0.40;;;22.30;63.10;;;;;;6197047;28;20084;-73
2023/08/30 03:40:23;;;;;;;0.60;0.50;;;22.30;63.10;;;;;;6196238;28;20975;-73
2023/08/30 03:43:24;;;;;;;0.40;0.40;;;22.30;63.10;;;;;;6195423;28;20027;-72
2023/08/30 03:46:24;;;;;;;0.40;0.40;;;22.30;63.10;;;;;;6196335;28;20018;-73
2023/08/30 03:49:25;;;;;;;0.40;0.40;;;22.30;63.10;;;;;;6196301;28;20120;-72
2023/08/30 03:52:26;;;;;;;0.40;0.40;;;22.30;63.10;;;;;;6196256;28;20027;-72
2023/08/30 03:55:26;;;;;;;0.30;0.30;;;22.20;62.90;;;;;;6196010;28;20022;-72
2023/08/30 03:58:27;;;;;;;0.50;0.40;;;22.20;63.00;;;;;;6196473;28;20110;-73
2023/08/30 04:01:27;;;;;;;0.63;0.40;;;22.30;63.10;;;;;;6195753;28;20034;-73
2023/08/30 04:04:28;;;;;;;0.38;0.38;;;22.30;63.10;;;;;;6195666;28;20030;-72
2023/08/30 04:07:29;;;;;;;0.32;0.32;;;22.30;63.10;;;;;;6196024;28;20035;-73
2023/08/30 04:10:33;;;;;;;1.10;0.30;;;22.20;63.00;;;;;;6195684;28;20058;-73
2023/08/30 04:13:35;;;;;;;0.68;0.35;;;22.30;63.10;;;;;;6196126;28;20100;-73
2023/08/30 04:16:35;;;;;;;0.30;0.30;;;22.30;63.20;;;;;;6195735;28;20054;-73
2023/08/30 04:19:36;;;;;;;0.40;0.40;;;22.30;63.20;;;;;;6195511;28;20026;-72
2023/08/30 04:22:37;;;;;;;0.40;0.30;;;22.30;63.10;;;;;;6195146;28;20098;-73
2023/08/30 04:25:37;;;;;;;0.20;0.20;;;22.20;63.00;;;;;;6195320;28;20027;-72
2023/08/30 04:28:38;;;;;;;0.68;0.40;;;22.30;63.10;;;;;;6195396;28;20392;-73
2023/08/30 04:31:38;;;;;;;0.40;0.40;;;22.20;63.00;;;;;;6195260;28;20030;-72
2023/08/30 04:34:39;;;;;;;0.57;0.35;;;22.20;63.00;;;;;;6195391;28;20030;-73
2023/08/30 04:37:40;;;;;;;0.35;0.35;;;22.30;63.20;;;;;;6181933;28;20482;-73
2023/08/30 04:40:40;;;;;;;0.38;0.38;;;22.30;63.10;;;;;;6192619;28;20053;-73
2023/08/30 04:43:41;;;;;;;0.32;0.32;;;22.20;63.00;;;;;;6193131;28;20432;-73
2023/08/30 04:46:41;;;;;;;3.00;0.38;;;22.20;63.00;;;;;;6192810;28;20022;-73
2023/08/30 04:49:42;;;;;;;1.20;0.40;;;22.20;63.30;;;;;;6193577;28;20490;-71
2023/08/30 04:52:43;;;;;;;6.68;0.77;;;22.30;64.90;;;;;;6201772;28;20398;-71
2023/08/30 04:55:43;;;;;;;15.65;1.25;;;22.30;64.70;;;;;;6198696;28;20074;-72
2023/08/30 04:58:44;;;;;;;10.05;0.55;;;22.30;65.80;;;;;;6195606;28;20030;-72
2023/08/30 05:01:44;;;;;;;5.05;0.70;;;22.40;65.20;;;;;;6192419;28;20037;-72
2023/08/30 05:04:45;;;;;;;1.98;0.30;;;22.40;64.50;;;;;;6192987;28;20397;-72
2023/08/30 05:07:46;;;;;;;4.03;0.40;;;22.30;64.10;;;;;;6185555;28;20482;-72
2023/08/30 05:10:46;;;;;;;1.95;0.57;;;22.30;64.10;;;;;;6190781;28;20459;-72
2023/08/30 05:13:47;;;;;;;1.23;0.50;;;22.30;64.10;;;;;;6192876;28;20030;-72
2023/08/30 05:16:49;;;;;;;5.15;0.43;;;22.30;64.00;;;;;;6200361;28;20042;-72
2023/08/30 05:19:49;;;;;;;0.40;0.32;;;22.30;64.00;;;;;;6201390;28;20514;-73
2023/08/30 05:22:50;;;;;;;0.75;0.55;;;22.30;64.00;;;;;;6200405;28;20106;-72
2023/08/30 05:25:51;;;;;;;2.40;0.50;;;22.30;63.90;;;;;;6208964;28;20022;-72
2023/08/30 05:28:51;;;;;;;0.65;0.30;;;22.30;64.00;;;;;;6200082;28;20528;-73
2023/08/30 05:31:52;;;;;;;0.30;0.28;;;22.20;63.80;;;;;;6199744;28;20026;-72
2023/08/30 05:34:52;;;;;;;1.90;0.60;;;22.20;63.90;;;;;;6192444;28;20034;-72
2023/08/30 05:37:53;;;;;;;1.05;0.43;;;22.20;63.80;;;;;;6193366;28;20038;-72
2023/08/30 05:40:54;;;;;;;1.15;0.70;;;22.20;63.30;;;;;;6193595;28;20027;-72
2023/08/30 05:43:54;;;;;;;2.53;1.00;;;22.20;63.20;;;;;;6193543;28;20073;-73
2023/08/30 05:46:55;;;;;;;3.05;0.98;;;22.20;63.00;;;;;;6193408;28;20018;-72
2023/08/30 05:49:56;;;;;;;10.07;1.65;;;22.30;62.20;;;;;;6193743;28;20089;-72
2023/08/30 05:52:57;;;;;;;6.22;1.30;;;22.20;61.90;;;;;;6193525;28;20041;-73
2023/08/30 05:55:57;;;;;;;2.50;1.25;;;22.30;62.10;;;;;;6193229;28;20030;-72
2023/08/30 05:58:58;;;;;;;1.33;0.82;;;22.30;62.00;;;;;;6194725;28;20034;-72
2023/08/30 06:01:58;;;;;;;3.97;1.30;;;22.30;62.60;;;;;;6189776;28;20085;-72
2023/08/30 06:04:59;;;;;;;3.25;1.10;;;22.30;62.10;;;;;;6195332;28;20026;-72
2023/08/30 06:08:00;;;;;;;3.05;1.08;;;22.30;62.40;;;;;;6195440;28;20030;-72
2023/08/30 06:11:01;;;;;;;3.88;1.00;;;22.20;62.60;;;;;;6195798;28;20038;-72
2023/08/30 06:14:01;;;;;;;2.63;0.77;;;22.30;63.10;;;;;;6195029;28;20481;-72
2023/08/30 06:17:02;;;;;;;1.42;0.73;;;22.20;62.90;;;;;;6195458;28;20023;-73
2023/08/30 06:20:03;;;;;;;3.42;1.42;;;22.20;63.00;;;;;;6195589;28;20034;-72
2023/08/30 06:23:04;;;;;;;4.25;0.98;;;22.20;63.00;;;;;;6195091;28;20475;-72
2023/08/30 06:26:04;;;;;;;1.67;0.80;;;22.20;63.10;;;;;;6195170;28;20022;-72
2023/08/30 06:29:05;;;;;;;1.35;0.85;;;22.20;63.10;;;;;;6194428;28;20038;-72
2023/08/30 06:32:06;;;;;;;2.35;0.75;;;22.20;63.10;;;;;;6195547;28;20486;-72
2023/08/30 06:35:07;;;;;;;2.05;0.70;;;22.20;63.10;;;;;;6193754;28;20062;-72
2023/08/30 06:38:08;;;;;;;1.50;0.70;;;22.20;63.10;;;;;;6195328;28;20393;-72
2023/08/30 06:41:08;;;;;;;1.13;0.63;;;22.20;63.10;;;;;;6195137;28;20091;-72
2023/08/30 06:44:09;;;;;;;1.85;0.80;;;22.20;63.20;;;;;;6194820;28;20027;-73
2023/08/30 06:47:10;;;;;;;1.60;0.80;;;22.20;63.20;;;;;;6195165;28;20050;-72
2023/08/30 06:50:10;;;;;;;2.25;0.77;;;22.20;63.20;;;;;;6194885;28;20505;-73
2023/08/30 06:53:11;;;;;;;1.00;0.70;;;22.20;63.20;;;;;;6195566;28;20022;-72
2023/08/30 06:56:11;;;;;;;1.40;0.60;;;22.20;63.10;;;;;;6195116;28;20474;-72
2023/08/30 06:59:12;;;;;;;1.05;0.57;;;22.20;63.20;;;;;;6194742;28;20503;-72
2023/08/30 07:02:13;;;;;;;0.80;0.60;;;22.20;63.20;;;;;;6194915;28;20069;-73
2023/08/30 07:05:14;;;;;;;1.67;0.88;;;22.20;63.20;;;;;;6195065;28;20029;-72
2023/08/30 07:08:15;;;;;;;1.23;0.60;;;22.20;63.20;;;;;;6195014;28;20022;-72
2023/08/30 07:11:15;;;;;;;1.63;0.70;;;22.20;63.20;;;;;;6194643;28;20065;-72
2023/08/30 07:14:16;;;;;;;0.93;0.60;;;22.20;63.20;;;;;;6194781;28;20018;-72
2023/08/30 07:17:17;;;;;;;1.30;0.60;;;22.20;63.20;;;;;;6196440;28;20113;-72
2023/08/30 07:20:17;;;;;;;1.20;0.55;;;22.20;63.20;;;;;;6199031;28;20520;-72
2023/08/30 07:23:18;;;;;;;1.20;0.93;;;22.20;63.30;;;;;;6198750;28;20061;-73
2023/08/30 07:26:18;;;;;;;0.90;0.50;;;22.20;63.20;;;;;;6199028;28;20062;-72
2023/08/30 07:29:19;;;;;;;0.45;0.40;;;22.20;63.20;;;;;;6198568;28;20034;-72
2023/08/30 07:32:20;;;;;;;1.33;0.60;;;22.20;63.20;;;;;;6199042;28;20022;-72
2023/08/30 07:35:20;;;;;;;0.68;0.55;;;22.20;63.20;;;;;;6198634;28;20030;-73
2023/08/30 07:38:21;;;;;;;1.30;0.90;;;22.20;63.20;;;;;;6198385;28;20425;-73
2023/08/30 07:41:22;;;;;;;1.80;0.57;;;22.20;63.30;;;;;;6198586;28;20172;-73
2023/08/30 07:44:22;;;;;;;2.97;0.95;;;22.20;63.20;;;;;;6198216;28;20081;-72
2023/08/30 07:47:23;;;;;;;0.90;0.75;;;22.20;63.30;;;;;;6198452;28;20457;-73
2023/08/30 07:50:24;;;;;;;1.65;0.80;;;22.20;63.20;;;;;;6198176;28;20392;-72
2023/08/30 07:53:24;;;;;;;0.77;0.60;;;22.20;63.20;;;;;;6198676;28;20419;-72
2023/08/30 07:56:25;;;;;;;1.08;0.70;;;22.20;63.30;;;;;;6198184;28;20571;-72
2023/08/30 07:59:26;;;;;;;1.38;0.70;;;22.20;63.30;;;;;;6198325;28;20070;-72
2023/08/30 08:02:27;;;;;;;2.05;0.75;;;22.20;63.30;;;;;;6198317;28;20025;-72
2023/08/30 08:05:27;;;;;;;1.30;0.70;;;22.20;63.30;;;;;;6198190;28;20030;-72
2023/08/30 08:08:28;;;;;;;1.00;0.77;;;22.20;63.30;;;;;;6197692;28;20031;-72
2023/08/30 08:11:29;;;;;;;1.17;0.70;;;22.20;63.30;;;;;;6197713;28;20058;-72
2023/08/30 08:14:29;;;;;;;0.98;0.50;;;22.20;63.30;;;;;;6197815;28;20022;-72
2023/08/30 08:17:30;;;;;;;3.42;0.95;;;22.20;63.30;;;;;;6197622;28;20029;-72
2023/08/30 08:20:31;;;;;;;0.80;0.70;;;22.20;63.30;;;;;;6197818;28;20065;-72
2023/08/30 08:23:31;;;;;;;1.50;0.80;;;22.20;63.30;;;;;;6197392;28;20019;-72
2023/08/30 08:26:32;;;;;;;1.25;0.80;;;22.20;63.30;;;;;;6197806;28;20022;-73
2023/08/30 08:29:32;;;;;;;1.90;0.60;;;22.20;63.30;;;;;;6196837;28;20030;-73
2023/08/30 08:32:33;;;;;;;0.90;0.68;;;22.20;63.30;;;;;;6197215;28;20519;-72
2023/08/30 08:35:34;;;;;;;1.23;0.70;;;22.20;63.40;;;;;;6197347;28;20026;-72
2023/08/30 08:38:34;;;;;;;1.15;0.60;;;22.20;63.30;;;;;;6196802;28;20033;-72
2023/08/30 08:41:41;;;;;;;1.35;0.60;;;22.20;63.30;;;;;;6197327;28;20022;-72
2023/08/30 08:44:43;;;;;;;1.20;0.70;;;22.20;63.30;;;;;;6196915;28;20023;-71
2023/08/30 08:47:46;;;;;;;0.70;0.60;;;22.20;63.30;;;;;;6197144;28;20049;-72
2023/08/30 08:50:48;;;;;;;1.02;0.75;;;22.20;63.30;;;;;;6196575;28;20493;-72
2023/08/30 08:53:49;;;;;;;0.82;0.60;;;22.20;63.30;;;;;;6196428;28;20034;-72
2023/08/30 08:56:50;;;;;;;0.93;0.65;;;22.20;63.30;;;;;;6196730;28;20033;-72
2023/08/30 08:59:50;;;;;;;1.02;0.65;;;22.20;63.30;;;;;;6192529;28;20030;-72
2023/08/30 09:02:52;;;;;;;1.20;0.60;;;22.20;63.30;;;;;;6196955;28;20029;-72
2023/08/30 09:05:53;;;;;;;1.13;0.52;;;22.20;63.30;;;;;;6196093;28;20033;-72
2023/08/30 09:08:54;;;;;;;0.70;0.60;;;22.20;63.30;;;;;;6196472;28;20043;-72
2023/08/30 09:11:54;;;;;;;1.00;0.68;;;22.20;63.40;;;;;;6196444;28;20050;-72
2023/08/30 09:14:55;;;;;;;0.70;0.60;;;22.20;63.30;;;;;;6196183;28;20022;-72
2023/08/30 09:17:56;;;;;;;0.50;0.50;;;22.20;63.30;;;;;;6196578;28;20038;-72
2023/08/30 09:21:10;;;;;;;0.80;0.60;;;22.20;63.40;;;;;;6195898;28;20018;-72
2023/08/30 09:24:11;;;;;;;1.00;0.60;;;22.20;63.40;;;;;;6195720;28;20134;-72
2023/08/30 09:27:11;;;;;;;0.68;0.50;;;22.20;63.30;;;;;;6196263;28;20030;-73
2023/08/30 09:30:12;;;;;;;1.05;0.60;;;22.20;63.40;;;;;;6195322;28;20113;-72
2023/08/30 09:33:13;;;;;;;0.70;0.60;;;22.20;63.40;;;;;;6198629;28;20112;-74
2023/08/30 09:36:14;;;;;;;1.55;0.75;;;22.20;63.40;;;;;;6195515;28;20026;-72
2023/08/30 09:39:14;;;;;;;0.93;0.50;;;22.20;63.40;;;;;;6195273;28;20176;-72
2023/08/30 09:42:17;;;;;;;0.50;0.50;;;22.20;63.50;;;;;;6195970;28;20023;-72
2023/08/30 09:45:22;;;;;;;0.75;0.57;;;22.20;63.50;;;;;;6195928;28;20030;-72
2023/08/30 09:48:23;;;;;;;0.65;0.40;;;22.20;63.50;;;;;;6196525;28;20034;-73
2023/08/30 09:51:27;;;;;;;0.88;0.40;;;22.20;63.50;;;;;;6195731;28;20034;-72
2023/08/30 09:54:28;;;;;;;0.77;0.50;;;22.20;63.50;;;;;;6195943;28;20492;-72
2023/08/30 09:57:30;;;;;;;0.68;0.55;;;22.20;63.50;;;;;;6196297;28;20065;-73
2023/08/30 10:00:33;;;;;;;0.60;0.45;;;22.20;63.50;;;;;;6195987;28;20153;-72
2023/08/30 10:03:35;;;;;;;0.55;0.38;;;22.20;63.50;;;;;;6196024;28;20109;-72
2023/08/30 10:06:37;;;;;;;0.45;0.45;;;22.20;63.50;;;;;;6178275;28;20456;-73
2023/08/30 10:09:39;;;;;;;0.80;0.50;;;22.20;63.50;;;;;;6193807;28;20545;-73
2023/08/30 10:12:42;;;;;;;1.40;0.52;;;22.20;63.30;;;;;;6202220;28;20037;-72
2023/08/30 10:15:47;;;;;;;1.00;0.50;;;22.30;63.40;;;;;;6193566;28;20030;-72
2023/08/30 10:18:53;;;;;;;;;;;22.30;64.00;;;;;;6194983;28;20033;-71
2023/08/30 10:22:00;;;;;;;;;;;22.30;64.00;;;;;;6197881;28;20384;-70
2023/08/30 10:25:04;;;;;;;0.40;0.40;;;22.20;63.90;;;;;;6204539;28;19913;-71
2023/08/30 10:28:05;;;;;;;1.03;0.60;;;22.20;63.80;;;;;;6201679;28;20031;-71
2023/08/30 10:31:06;;;;;;;1.42;0.50;;;22.20;63.80;;;;;;6194020;28;20484;-71
2023/08/30 10:34:18;;;;;;;0.63;0.43;;;22.20;63.90;;;;;;6194119;28;20056;-71
2023/08/30 10:37:26;;;;;;;0.43;0.40;;;22.20;63.70;;;;;;6194102;28;20065;-71
2023/08/30 10:40:27;;;;;;;0.32;0.30;;;22.20;63.80;;;;;;6185970;28;20060;-71
2023/08/30 10:43:34;;;;;;;0.80;0.50;;;22.20;63.80;;;;;;6189126;28;20034;-71
2023/08/30 10:46:36;;;;;;;0.52;0.40;;;22.20;63.70;;;;;;6193286;28;20029;-71
2023/08/30 10:49:42;;;;;;;1.00;0.60;;;22.20;63.70;;;;;;6193319;28;20441;-70
2023/08/30 10:52:42;;;;;;;1.70;0.60;;;22.20;63.70;;;;;;6197477;28;20080;-70
2023/08/30 10:56:03;;;;;;;0.80;0.43;;;22.20;63.70;;;;;;6198588;28;20025;-69
2023/08/30 10:59:03;;;;;;;3.15;0.50;;;22.20;63.70;;;;;;6190449;28;20022;-71
2023/08/30 11:02:05;;;;;;;6.30;0.70;;;22.30;64.00;;;;;;6197085;28;20081;-71
2023/08/30 11:05:08;;;;;;;1.45;0.43;;;22.30;64.50;;;;;;6193703;28;20030;-71
2023/08/30 11:08:11;;;;;;;0.98;0.50;;;22.30;64.40;;;;;;6194683;28;20422;-69
2023/08/30 11:11:14;;;;;;;0.60;0.50;;;22.30;64.20;;;;;;6195804;28;20401;-70
2023/08/30 11:14:16;;;;;;;0.63;0.50;;;22.30;64.10;;;;;;6197655;28;20468;-70
2023/08/30 11:17:17;;;;;;;0.60;0.40;;;22.20;63.90;;;;;;6197057;28;20390;-70
2023/08/30 11:20:19;;;;;;;0.82;0.40;;;22.20;63.90;;;;;;6203455;28;20045;-70
2023/08/30 11:23:20;;;;;;;1.63;0.60;;;22.20;63.90;;;;;;6197136;28;20397;-70
2023/08/30 11:26:20;;;;;;;1.27;0.55;;;22.30;63.90;;;;;;6205437;28;20026;-70
2023/08/30 11:29:21;;;;;;;0.50;0.40;;;22.20;63.80;;;;;;6197198;28;20038;-70
2023/08/30 11:32:22;;;;;;;0.82;0.40;;;22.20;63.80;;;;;;6205714;28;20446;-70
2023/08/30 11:35:22;;;;;;;1.30;0.40;;;22.20;63.80;;;;;;6197425;28;20034;-71
2023/08/30 11:38:23;;;;;;;0.52;0.32;;;22.20;63.70;;;;;;6197238;28;20512;-70
2023/08/30 11:41:25;;;;;;;0.77;0.40;;;22.20;63.70;;;;;;6205101;28;20034;-70
2023/08/30 11:44:28;;;;;;;1.02;0.60;;;22.20;63.70;;;;;;6197039;28;20347;-70
2023/08/30 11:47:29;;;;;;;2.85;0.40;;;22.30;64.10;;;;;;6198058;28;20492;-71
2023/08/30 11:50:30;;;;;;;2.95;0.60;;;22.30;64.40;;;;;;6204340;28;20045;-71
2023/08/30 11:53:31;;;;;;;1.45;0.57;;;22.30;64.80;;;;;;6201373;28;20026;-70
2023/08/30 11:56:32;;;;;;;4.35;0.55;;;22.30;64.60;;;;;;6197583;28;20030;-71
2023/08/30 11:59:35;;;;;;;1.00;0.70;;;22.30;64.80;;;;;;6205381;28;20061;-71
2023/08/30 12:02:36;;;;;;;1.17;0.40;;;22.30;64.50;;;;;;6196284;28;20461;-71
2023/08/30 12:05:47;;;;;;;2.08;0.57;;;22.30;64.40;;;;;;6200108;28;20068;-71
2023/08/30 12:08:47;;;;;;;0.88;0.43;;;22.30;64.50;;;;;;6196529;28;20126;-71
2023/08/30 12:11:51;;;;;;;0.75;0.40;;;22.30;64.40;;;;;;6200696;28;20540;-71
2023/08/30 12:14:58;;;;;;;0.65;0.30;;;22.30;64.40;;;;;;6198330;28;20109;-71
2023/08/30 12:18:06;;;;;;;0.88;0.40;;;22.30;64.40;;;;;;6195896;28;20022;-71
2023/08/30 12:21:07;;;;;;;0.55;0.45;;;22.30;64.40;;;;;;6196043;28;20034;-71
2023/08/30 12:24:09;;;;;;;1.13;0.55;;;22.30;64.40;;;;;;6196364;28;20096;-71
2023/08/30 12:27:09;;;;;;;0.98;0.32;;;22.30;64.30;;;;;;6202478;28;20034;-71
2023/08/30 12:30:10;;;;;;;1.38;0.40;;;22.30;64.30;;;;;;6197689;28;20031;-71
2023/08/30 12:33:11;;;;;;;1.20;0.32;;;22.30;64.30;;;;;;6195861;28;20022;-70
2023/08/30 12:36:11;;;;;;;0.60;0.50;;;22.20;64.20;;;;;;6211126;28;20033;-71
2023/08/30 12:39:12;;;;;;;1.23;0.40;;;22.30;64.30;;;;;;6210714;28;20026;-71
2023/08/30 12:42:13;;;;;;;0.47;0.35;;;22.20;64.10;;;;;;6196651;28;20547;-71
2023/08/30 12:45:13;;;;;;;1.23;0.30;;;22.30;64.20;;;;;;6195668;28;20085;-71
2023/08/30 12:48:15;;;;;;;0.40;0.30;;;22.20;64.10;;;;;;6195279;28;20018;-71
2023/08/30 12:51:15;;;;;;;0.22;0.20;;;22.20;64.10;;;;;;6195501;28;20084;-71
2023/08/30 12:54:16;;;;;;;0.20;0.20;;;22.20;64.10;;;;;;6203256;28;20022;-71
2023/08/30 12:57:17;;;;;;;0.55;0.38;;;22.20;64.10;;;;;;6200992;28;20101;-71
2023/08/30 13:00:17;;;;;;;0.75;0.40;;;22.20;64.00;;;;;;6206155;28;20037;-70
2023/08/30 13:03:18;;;;;;;0.70;0.30;;;22.20;64.00;;;;;;6195352;28;20077;-70
2023/08/30 13:06:18;;;;;;;0.35;0.35;;;22.20;64.10;;;;;;6201598;28;20041;-71
2023/08/30 13:09:19;;;;;;;0.55;0.40;;;22.20;64.00;;;;;;6204281;28;20038;-71
2023/08/30 13:12:20;;;;;;;0.38;0.30;;;22.20;64.00;;;;;;6194660;28;20029;-71
2023/08/30 13:15:20;;;;;;;0.32;0.30;;;22.20;64.00;;;;;;6199677;28;20517;-71
2023/08/30 13:18:21;;;;;;;1.30;0.50;;;22.20;64.00;;;;;;6195374;28;20092;-70
2023/08/30 13:21:22;;;;;;;1.38;0.50;;;22.20;64.00;;;;;;6194771;28;20045;-71
2023/08/30 13:24:22;;;;;;;0.82;0.35;;;22.20;64.00;;;;;;6201887;28;20041;-70
2023/08/30 13:27:23;;;;;;;0.35;0.30;;;22.20;64.00;;;;;;6195389;28;20116;-70
2023/08/30 13:30:24;;;;;;;0.60;0.60;;;22.20;64.00;;;;;;6194842;28;20683;-71
2023/08/30 13:33:24;;;;;;;0.65;0.30;;;22.20;64.00;;;;;;6194949;28;20029;-71
2023/08/30 13:36:25;;;;;;;0.30;0.30;;;22.20;64.00;;;;;;6193973;28;20030;-71
2023/08/30 13:39:25;;;;;;;0.73;0.55;;;22.20;64.00;;;;;;6194960;28;20037;-71
2023/08/30 13:42:27;;;;;;;0.50;0.28;;;22.20;64.00;;;;;;6193770;28;20037;-71
2023/08/30 13:45:27;;;;;;;0.93;0.40;;;22.20;64.00;;;;;;6194461;28;20505;-70
2023/08/30 13:48:28;;;;;;;0.68;0.20;;;22.20;64.00;;;;;;6194920;28;20239;-70
2023/08/30 13:51:29;;;;;;;0.85;0.40;;;22.20;64.00;;;;;;6208959;28;20131;-70
2023/08/30 13:54:29;;;;;;;0.30;0.30;;;22.20;64.00;;;;;;6195170;28;20034;-70
2023/08/30 13:57:30;;;;;;;0.30;0.30;;;22.20;64.00;;;;;;6201033;28;20034;-71
2023/08/30 14:00:30;;;;;;;0.45;0.32;;;22.20;64.00;;;;;;6193658;28;20041;-71
2023/08/30 14:03:31;;;;;;;0.30;0.30;;;22.20;64.00;;;;;;6193656;28;20720;-70
2023/08/30 14:06:32;;;;;;;0.73;0.40;;;22.20;64.00;;;;;;6194186;28;20026;-71
2023/08/30 14:09:32;;;;;;;0.38;0.28;;;22.20;64.00;;;;;;6193851;28;20038;-70
2023/08/30 14:12:34;;;;;;;0.40;0.30;;;22.20;64.00;;;;;;6193628;28;20101;-71
2023/08/30 14:15:34;;;;;;;0.57;0.50;;;22.20;64.00;;;;;;6194326;28;20030;-70
2023/08/30 14:18:35;;;;;;;0.70;0.40;;;22.20;64.00;;;;;;6195310;28;20414;-70
2023/08/30 14:21:35;;;;;;;0.70;0.45;;;22.20;64.00;;;;;;6208460;28;20057;-70
2023/08/30 14:24:36;;;;;;;0.70;0.40;;;22.20;64.00;;;;;;6206965;28;20032;-71
2023/08/30 14:27:37;;;;;;;0.28;0.28;;;22.20;64.00;;;;;;6199764;28;20026;-70
2023/08/30 14:30:37;;;;;;;0.88;0.40;;;22.20;65.00;;;;;;6205886;28;20042;-70
2023/08/30 14:33:41;;;;;;;0.35;0.30;;;22.20;64.00;;;;;;6197185;28;20069;-70
2023/08/30 14:36:42;;;;;;;0.50;0.50;;;22.20;64.10;;;;;;6205252;28;20057;-70
2023/08/30 14:39:43;;;;;;;0.40;0.30;;;22.20;64.90;;;;;;6198919;28;20061;-71
2023/08/30 14:42:43;;;;;;;0.40;0.40;;;22.20;64.00;;;;;;6197290;28;20087;-70
2023/08/30 14:45:44;;;;;;;0.40;0.40;;;22.20;64.00;;;;;;6197077;28;20026;-70
2023/08/30 14:48:45;;;;;;;0.25;0.25;;;22.20;64.00;;;;;;6213177;28;20033;-70
2023/08/30 14:51:46;;;;;;;0.50;0.40;;;22.20;64.00;;;;;;6208766;28;20223;-70
2023/08/30 14:54:46;;;;;;;0.90;0.52;;;22.20;64.00;;;;;;6201968;28;20026;-70
2023/08/30 14:57:47;;;;;;;0.30;0.30;;;22.20;64.00;;;;;;6196528;28;20030;-70
2023/08/30 15:00:48;;;;;;;0.40;0.30;;;22.20;64.00;;;;;;6196775;28;20038;-71
2023/08/30 15:03:49;;;;;;;0.80;0.40;;;22.20;64.00;;;;;;6196514;28;20117;-70
2023/08/30 15:06:50;;;;;;;0.50;0.30;;;22.20;64.00;;;;;;6205077;28;20027;-69
2023/08/30 15:09:50;;;;;;;0.35;0.30;;;22.20;64.00;;;;;;6196182;28;20524;-70
2023/08/30 15:12:51;;;;;;;0.32;0.30;;;22.10;63.90;;;;;;6205179;28;20038;-70
2023/08/30 15:15:51;;;;;;;0.52;0.43;;;22.20;63.90;;;;;;6196876;28;20018;-70
2023/08/30 15:18:52;;;;;;;0.30;0.30;;;22.20;64.00;;;;;;6197019;28;20030;-70
2023/08/30 15:21:53;;;;;;;0.75;0.38;;;22.20;64.00;;;;;;6205516;28;20077;-70
2023/08/30 15:24:53;;;;;;;0.50;0.32;;;22.20;64.00;;;;;;6200872;28;20366;-70
2023/08/30 15:27:54;;;;;;;0.70;0.40;;;22.20;64.00;;;;;;6196475;28;20030;-70
2023/08/30 15:30:55;;;;;;;0.60;0.40;;;22.20;64.00;;;;;;6204929;28;20049;-71
2023/08/30 15:33:56;;;;;;;0.90;0.43;;;22.20;64.00;;;;;;6209066;28;20034;-70
2023/08/30 15:36:57;;;;;;;0.43;0.30;;;22.20;64.00;;;;;;6198400;28;20113;-70
2023/08/30 15:40:05;;;;;;;0.60;0.50;;;22.20;63.90;;;;;;6196261;28;20038;-70
2023/08/30 15:43:06;;;;;;;1.45;0.70;;;22.20;63.60;;;;;;6196348;28;20573;-70
2023/08/30 15:46:11;;;;;;;0.93;0.50;;;22.20;59.90;;;;;;6196106;28;20105;-70